createdAt,value
2023-02-27T00:06:42.172Z,96411.84
2023-02-27T00:21:44.640Z,96412.84
2023-02-27T00:36:46.022Z,96408.13
2023-02-27T00:51:47.599Z,96417.41
2023-02-27T01:06:49.004Z,96401.34
2023-02-27T01:21:50.416Z,96412.22
2023-02-27T01:36:51.814Z,96409.91
2023-02-27T01:51:53.218Z,96404.28
2023-02-27T02:06:55.628Z,96400.22
2023-02-27T02:21:56.981Z,96395.47
2023-02-27T02:36:58.358Z,96401.63
2023-02-27T02:51:59.816Z,96391.56
2023-02-27T03:07:01.256Z,96389.16
2023-02-27T03:22:02.717Z,96412.53
2023-02-27T03:37:04.466Z,96417.69
2023-02-27T03:52:06.008Z,96429.97
2023-02-27T04:07:22.837Z,96430.06
2023-02-27T04:22:25.289Z,96428.00
2023-02-27T04:37:26.687Z,96433.78
2023-02-27T04:52:28.050Z,96433.88
2023-02-27T05:07:29.422Z,96437.00
2023-02-27T05:22:30.835Z,96445.13
2023-02-27T05:37:32.338Z,96454.50
2023-02-27T05:52:34.289Z,96467.59
2023-02-27T06:07:35.762Z,96469.03
2023-02-27T06:22:37.535Z,96474.47
2023-02-27T06:37:38.957Z,96488.81
2023-02-27T06:52:40.366Z,96502.53
2023-02-27T07:07:41.721Z,96501.00
2023-02-27T07:22:43.097Z,96518.25
2023-02-27T07:37:44.462Z,96517.34
2023-02-27T07:52:46.264Z,96521.66
2023-02-27T08:07:47.708Z,96514.16
2023-02-27T08:22:49.221Z,96512.94
2023-02-27T08:37:50.787Z,96521.81
2023-02-27T08:52:52.994Z,96538.66
2023-02-27T09:07:54.375Z,96543.53
2023-02-27T09:22:55.853Z,96533.63
2023-02-27T09:37:57.258Z,96544.44
2023-02-27T09:52:58.662Z,96566.72
2023-02-27T10:08:01.101Z,96567.47
2023-02-27T10:23:02.519Z,96568.47
2023-02-27T10:38:03.966Z,96570.22
2023-02-27T10:53:05.415Z,96581.50
2023-02-27T11:08:20.479Z,96568.78
2023-02-27T11:23:21.931Z,96558.72
2023-02-27T11:38:24.475Z,96556.72
2023-02-27T11:53:25.883Z,96575.50
2023-02-27T12:08:27.239Z,96576.72
2023-02-27T12:23:28.738Z,96571.13
2023-02-27T12:38:30.198Z,96569.63
2023-02-27T12:53:31.626Z,96565.72
2023-02-27T13:08:33.047Z,96562.00
2023-02-27T13:23:34.472Z,96544.59
2023-02-27T13:38:35.882Z,96564.38
2023-02-27T13:53:37.241Z,96553.69
2023-02-27T14:08:38.603Z,96564.38
2023-02-27T14:23:39.973Z,96572.25
2023-02-27T14:38:41.387Z,96566.47
2023-02-27T14:53:42.751Z,96573.84
2023-02-27T15:08:44.129Z,96570.44
2023-02-27T15:23:45.502Z,96596.63
2023-02-27T15:38:46.869Z,96600.91
2023-02-27T15:53:48.242Z,96599.53
2023-02-27T16:08:49.612Z,96605.13
2023-02-27T16:23:51.324Z,96630.28
2023-02-27T16:38:53.015Z,96647.31
2023-02-27T16:53:54.644Z,96659.00
2023-02-27T17:08:57.903Z,96674.81
2023-02-27T17:23:59.462Z,96689.91
2023-02-27T17:39:01.816Z,96693.69
2023-02-27T17:54:03.362Z,96712.41
2023-02-27T18:09:04.822Z,96732.16
2023-02-27T18:24:06.375Z,96742.19
2023-02-27T18:39:07.838Z,96753.91
2023-02-27T18:54:09.256Z,96757.94
2023-02-27T19:09:10.771Z,96744.56
2023-02-27T19:24:12.275Z,96752.94
2023-02-27T19:39:13.640Z,96748.16
2023-02-27T19:54:15.509Z,96747.53
2023-02-27T20:09:16.952Z,96752.50
2023-02-27T20:24:18.806Z,96747.84
2023-02-27T20:39:20.215Z,96734.72
2023-02-27T20:54:22.677Z,96726.22
2023-02-27T21:09:24.080Z,96726.91
2023-02-27T21:24:25.585Z,96733.16
2023-02-27T21:39:28.071Z,96721.63
2023-02-27T21:54:29.570Z,96702.88
2023-02-27T22:09:30.961Z,96691.22
2023-02-27T22:24:32.366Z,96685.72
2023-02-27T22:39:33.767Z,96687.59
2023-02-27T22:54:35.239Z,96679.50
2023-02-27T23:09:36.639Z,96683.53
2023-02-27T23:24:38.016Z,96675.84
2023-02-27T23:39:39.527Z,96683.47
2023-02-27T23:54:40.950Z,96674.84
